createdAt,value
2018-02-09T00:01:08.115Z,62.10
2018-02-09T00:03:37.067Z,59.97
2018-02-09T00:06:06.780Z,56.88
2018-02-09T00:08:35.996Z,54.85
2018-02-09T00:11:04.936Z,58.60
2018-02-09T00:13:33.859Z,56.33
2018-02-09T00:16:03.584Z,55.97
2018-02-09T00:18:32.523Z,56.40
2018-02-09T00:21:01.491Z,57.72
2018-02-09T00:23:30.443Z,58.13
2018-02-09T00:26:00.192Z,56.83
2018-02-09T00:28:29.145Z,59.90
2018-02-09T00:30:58.916Z,57.75
2018-02-09T00:33:27.851Z,56.33
2018-02-09T00:35:56.796Z,58.63
2018-02-09T00:38:25.736Z,56.15
2018-02-09T00:40:54.733Z,57.78
2018-02-09T00:43:23.733Z,55.45
2018-02-09T00:45:52.692Z,57.35
2018-02-09T00:48:22.361Z,54.08
2018-02-09T00:50:51.332Z,56.88
2018-02-09T00:53:20.289Z,58.35
2018-02-09T00:55:50.280Z,58.45
2018-02-09T00:58:19.265Z,56.78
2018-02-09T01:00:48.969Z,55.50
2018-02-09T01:03:17.888Z,56.30
2018-02-09T01:05:46.852Z,58.08
2018-02-09T01:08:15.773Z,57.80
2018-02-09T01:10:45.485Z,57.67
2018-02-09T01:13:14.405Z,58.35
2018-02-09T01:15:43.369Z,57.42
2018-02-09T01:18:13.063Z,60.03
2018-02-09T01:20:42.053Z,55.65
2018-02-09T01:23:11.040Z,54.78
2018-02-09T01:25:39.991Z,57.03
2018-02-09T01:28:11.176Z,54.65
2018-02-09T01:30:40.125Z,55.22
2018-02-09T01:33:09.103Z,55.00
2018-02-09T01:35:38.818Z,55.10
2018-02-09T01:38:07.820Z,55.78
2018-02-09T01:40:36.734Z,57.60
2018-02-09T01:43:05.690Z,57.00
2018-02-09T01:45:34.716Z,55.95
2018-02-09T01:48:03.667Z,54.80
2018-02-09T01:50:33.351Z,53.17
2018-02-09T01:53:02.353Z,54.28
2018-02-09T01:55:32.102Z,54.40
2018-02-09T01:58:02.465Z,53.60
2018-02-09T02:00:31.391Z,54.13
2018-02-09T02:03:01.127Z,56.28
2018-02-09T02:05:30.065Z,56.67
2018-02-09T02:08:00.806Z,56.88
2018-02-09T02:10:29.883Z,53.72
2018-02-09T02:12:59.032Z,55.47
2018-02-09T02:15:27.998Z,57.38
2018-02-09T02:17:56.931Z,52.47
2018-02-09T02:20:25.866Z,50.90
2018-02-09T02:22:54.807Z,52.03
2018-02-09T02:25:23.751Z,47.92
2018-02-09T02:27:53.001Z,47.95
2018-02-09T02:30:21.992Z,51.85
2018-02-09T02:32:50.912Z,53.35
2018-02-09T02:35:19.892Z,49.78
2018-02-09T02:37:48.868Z,49.75
2018-02-09T02:40:17.808Z,49.92
2018-02-09T02:42:46.769Z,51.70
2018-02-09T02:45:16.545Z,50.78
2018-02-09T02:47:46.269Z,50.55
2018-02-09T02:50:15.213Z,52.50
2018-02-09T02:52:44.154Z,48.90
2018-02-09T02:55:13.076Z,47.83
2018-02-09T02:57:42.000Z,50.12
2018-02-09T03:00:10.963Z,56.08
2018-02-09T03:02:39.874Z,50.97
2018-02-09T03:05:09.592Z,51.35
2018-02-09T03:07:38.537Z,51.53
2018-02-09T03:10:07.569Z,47.62
2018-02-09T03:12:36.504Z,47.45
2018-02-09T03:15:05.444Z,46.10
2018-02-09T03:17:34.426Z,50.47
2018-02-09T03:20:03.560Z,51.70
2018-02-09T03:22:34.172Z,47.67
2018-02-09T03:25:03.705Z,47.75
2018-02-09T03:27:33.396Z,49.42
2018-02-09T03:30:02.393Z,48.30
2018-02-09T03:32:32.087Z,52.55
2018-02-09T03:35:01.041Z,50.40
2018-02-09T03:37:31.386Z,47.38
2018-02-09T03:40:00.358Z,50.42
2018-02-09T03:42:29.297Z,50.90
2018-02-09T03:44:58.272Z,48.70
2018-02-09T03:47:27.254Z,49.50
2018-02-09T03:49:56.213Z,47.47
2018-02-09T03:52:25.143Z,50.12
2018-02-09T03:54:54.076Z,49.05
2018-02-09T03:57:23.840Z,49.80
2018-02-09T03:59:52.808Z,50.45
2018-02-09T04:02:25.166Z,47.60
2018-02-09T04:04:54.188Z,48.60
2018-02-09T04:07:23.128Z,49.35
2018-02-09T04:09:52.888Z,53.35
2018-02-09T04:12:21.902Z,47.35
2018-02-09T04:14:50.848Z,48.58
2018-02-09T04:17:19.770Z,46.80
2018-02-09T04:19:48.702Z,48.38
2018-02-09T04:22:17.663Z,47.85
2018-02-09T04:24:46.584Z,45.65
2018-02-09T04:27:16.341Z,50.33
2018-02-09T04:29:45.278Z,45.00
2018-02-09T04:32:14.291Z,48.92
2018-02-09T04:34:44.025Z,51.80
2018-02-09T04:37:12.976Z,50.35
2018-02-09T04:39:41.911Z,53.30
2018-02-09T04:42:10.817Z,48.08
2018-02-09T04:44:39.732Z,46.03
2018-02-09T04:47:08.778Z,46.50
2018-02-09T04:49:37.754Z,50.40
2018-02-09T04:52:07.508Z,47.10
2018-02-09T04:54:36.438Z,48.63
2018-02-09T04:57:05.590Z,49.50
2018-02-09T04:59:35.240Z,48.80
2018-02-09T05:02:04.224Z,45.63
2018-02-09T05:04:33.907Z,50.40
2018-02-09T05:07:02.948Z,46.92
2018-02-09T05:09:32.704Z,49.00
2018-02-09T05:12:01.701Z,46.30
2018-02-09T05:14:30.611Z,48.25
2018-02-09T05:17:01.928Z,45.40
2018-02-09T05:19:31.169Z,49.38
2018-02-09T05:22:00.907Z,49.85
2018-02-09T05:24:31.014Z,50.50
2018-02-09T05:27:00.030Z,51.35
2018-02-09T05:29:29.033Z,53.60
2018-02-09T05:31:57.989Z,51.22
2018-02-09T05:34:26.885Z,48.10
2018-02-09T05:36:56.661Z,47.67
2018-02-09T05:39:25.622Z,46.22
2018-02-09T05:41:55.632Z,46.42
2018-02-09T05:44:24.623Z,45.17
2018-02-09T05:46:53.640Z,50.90
2018-02-09T05:49:22.654Z,46.90
2018-02-09T05:51:51.572Z,47.28
2018-02-09T05:54:20.514Z,45.67
2018-02-09T05:56:49.446Z,47.13
2018-02-09T05:59:19.183Z,48.60
2018-02-09T06:01:51.251Z,46.45
2018-02-09T06:04:20.251Z,48.15
2018-02-09T06:06:49.972Z,50.05
2018-02-09T06:09:18.919Z,50.17
2018-02-09T06:11:47.893Z,49.63
2018-02-09T06:14:16.866Z,50.47
2018-02-09T06:16:45.917Z,51.22
2018-02-09T06:19:15.011Z,51.40
2018-02-09T06:21:44.733Z,51.45
2018-02-09T06:24:13.797Z,52.80
2018-02-09T06:26:47.364Z,53.95
2018-02-09T06:29:16.347Z,59.67
2018-02-09T06:31:45.344Z,60.15
2018-02-09T06:34:14.413Z,61.28
2018-02-09T06:36:43.429Z,61.00
2018-02-09T06:39:12.441Z,59.55
2018-02-09T06:41:41.385Z,59.92
2018-02-09T06:44:11.211Z,60.53
2018-02-09T06:46:40.164Z,62.28
2018-02-09T06:49:09.211Z,58.87
2018-02-09T06:51:38.957Z,57.50
2018-02-09T06:54:07.933Z,56.42
2018-02-09T06:56:37.011Z,56.75
2018-02-09T06:59:06.051Z,59.08
2018-02-09T07:01:35.880Z,65.18
2018-02-09T07:04:05.734Z,59.35
2018-02-09T07:06:34.733Z,61.58
2018-02-09T07:09:04.049Z,60.67
2018-02-09T07:11:33.056Z,62.95
2018-02-09T07:14:02.020Z,63.45
2018-02-09T07:16:31.021Z,64.05
2018-02-09T07:18:59.993Z,59.38
2018-02-09T07:21:29.760Z,60.00
2018-02-09T07:23:59.549Z,62.38
2018-02-09T07:26:28.702Z,60.60
2018-02-09T07:28:57.869Z,55.65
2018-02-09T07:31:26.883Z,61.75
2018-02-09T07:33:56.740Z,56.97
2018-02-09T07:36:26.104Z,60.38
2018-02-09T07:38:55.158Z,57.78
2018-02-09T07:41:24.308Z,54.85
2018-02-09T07:43:53.345Z,59.65
2018-02-09T07:46:22.325Z,60.00
2018-02-09T07:48:51.424Z,58.03
2018-02-09T07:51:20.638Z,56.17
2018-02-09T07:53:50.370Z,58.95
2018-02-09T07:56:19.339Z,56.25
2018-02-09T07:58:49.180Z,55.40
2018-02-09T08:01:18.133Z,52.13
2018-02-09T08:03:47.097Z,59.30
2018-02-09T08:06:16.139Z,56.40
2018-02-09T08:08:45.940Z,55.85
2018-02-09T08:11:15.748Z,52.33
2018-02-09T08:13:44.995Z,52.08
2018-02-09T08:16:14.249Z,51.22
2018-02-09T08:18:44.011Z,53.25
2018-02-09T08:21:13.035Z,54.58
2018-02-09T08:23:42.874Z,50.85
2018-02-09T08:26:12.622Z,52.83
2018-02-09T08:28:41.691Z,51.47
2018-02-09T08:31:11.498Z,51.80
2018-02-09T08:33:41.278Z,52.78
2018-02-09T08:36:10.300Z,53.53
2018-02-09T08:38:40.032Z,53.33
2018-02-09T08:41:09.809Z,54.80
2018-02-09T08:43:38.872Z,50.03
2018-02-09T08:46:07.907Z,53.13
2018-02-09T08:48:37.688Z,55.85
2018-02-09T08:51:07.742Z,51.33
2018-02-09T08:53:37.470Z,54.30
2018-02-09T08:56:06.530Z,52.60
2018-02-09T08:58:36.333Z,53.00
2018-02-09T09:01:05.357Z,53.63
2018-02-09T09:03:35.142Z,53.38
2018-02-09T09:06:05.173Z,51.53
2018-02-09T09:08:35.006Z,53.38
2018-02-09T09:12:06.404Z,54.15
2018-02-09T09:14:35.744Z,53.95
2018-02-09T09:17:05.624Z,55.38
2018-02-09T09:19:34.703Z,51.25
2018-02-09T09:22:04.429Z,52.50
2018-02-09T09:24:33.393Z,50.17
2018-02-09T09:27:02.678Z,52.42
2018-02-09T09:29:31.668Z,52.30
2018-02-09T09:32:31.221Z,51.13
2018-02-09T09:35:00.202Z,51.90
2018-02-09T09:37:29.192Z,50.70
2018-02-09T09:39:58.229Z,48.42
2018-02-09T09:42:28.021Z,46.13
2018-02-09T09:44:56.964Z,44.10
2018-02-09T09:47:26.061Z,52.47
2018-02-09T09:49:55.093Z,49.83
2018-02-09T09:52:24.206Z,48.00
2018-02-09T09:54:54.148Z,47.25
2018-02-09T09:57:24.130Z,48.20
2018-02-09T09:59:54.041Z,42.05
2018-02-09T10:02:31.837Z,44.60
2018-02-09T10:05:01.634Z,45.50
2018-02-09T10:07:30.634Z,43.70
2018-02-09T10:13:30.979Z,43.15
2018-02-09T10:15:59.951Z,44.38
2018-02-09T10:18:28.904Z,44.50
2018-02-09T10:20:58.604Z,44.80
2018-02-09T10:23:28.288Z,46.78
2018-02-09T10:25:58.011Z,45.05
2018-02-09T10:28:31.946Z,44.88
2018-02-09T10:31:01.836Z,41.90
2018-02-09T10:33:31.827Z,43.30
2018-02-09T10:36:00.799Z,42.90
2018-02-09T10:38:29.892Z,42.28
2018-02-09T10:40:59.017Z,42.97
2018-02-09T10:43:27.965Z,41.58
2018-02-09T10:45:57.034Z,42.90
2018-02-09T10:48:26.809Z,41.60
2018-02-09T10:50:56.634Z,44.60
2018-02-09T10:53:25.740Z,42.10
2018-02-09T10:55:55.558Z,41.88
2018-02-09T10:58:24.905Z,42.47
2018-02-09T11:00:58.059Z,41.37
2018-02-09T11:03:27.865Z,41.83
2018-02-09T11:05:57.651Z,39.78
2018-02-09T11:08:26.686Z,43.03
2018-02-09T11:10:56.645Z,42.25
2018-02-09T11:13:29.904Z,44.40
2018-02-09T11:15:59.233Z,40.80
2018-02-09T11:18:29.064Z,42.13
2018-02-09T11:20:58.415Z,40.55
2018-02-09T11:23:28.289Z,44.33
2018-02-09T11:25:57.580Z,40.53
2018-02-09T11:28:27.831Z,40.47
2018-02-09T11:30:56.923Z,39.58
2018-02-09T11:33:26.546Z,42.88
2018-02-09T11:35:55.693Z,42.40
2018-02-09T11:38:24.719Z,41.28
2018-02-09T11:40:53.728Z,39.33
2018-02-09T11:43:23.652Z,43.50
2018-02-09T11:46:56.093Z,44.40
2018-02-09T11:49:25.176Z,40.65
2018-02-09T11:51:54.140Z,39.72
2018-02-09T11:54:23.197Z,40.60
2018-02-09T11:56:52.239Z,44.65
2018-02-09T11:59:21.217Z,44.97
2018-02-09T12:01:50.215Z,44.25
2018-02-09T12:04:26.221Z,43.08
2018-02-09T12:06:55.445Z,41.53
2018-02-09T12:09:30.195Z,45.15
2018-02-09T12:11:59.385Z,45.65
2018-02-09T12:14:28.372Z,41.80
2018-02-09T12:16:57.645Z,42.65
2018-02-09T12:19:32.304Z,41.85
2018-02-09T12:22:04.368Z,40.55
2018-02-09T12:24:33.517Z,42.47
2018-02-09T12:27:03.431Z,42.15
2018-02-09T12:29:36.471Z,42.47
2018-02-09T12:32:05.264Z,43.03
2018-02-09T12:34:34.324Z,44.63
2018-02-09T12:37:04.340Z,39.53
2018-02-09T12:39:34.152Z,40.58
2018-02-09T12:42:03.361Z,41.10
2018-02-09T12:44:33.479Z,45.00
2018-02-09T12:47:02.687Z,40.42
2018-02-09T12:49:31.696Z,39.58
2018-02-09T12:52:00.749Z,38.75
2018-02-09T12:54:30.570Z,40.15
2018-02-09T12:57:00.334Z,39.00
2018-02-09T12:59:29.336Z,37.78
2018-02-09T13:01:58.298Z,38.88
2018-02-09T13:04:27.457Z,38.00
2018-02-09T13:06:57.288Z,34.85
2018-02-09T13:09:26.476Z,37.03
2018-02-09T13:11:56.373Z,38.30
2018-02-09T13:17:04.601Z,41.40
2018-02-09T13:19:34.554Z,33.92
2018-02-09T13:22:04.065Z,36.25
2018-02-09T13:24:34.149Z,36.40
2018-02-09T13:27:04.019Z,38.83
2018-02-09T13:29:33.040Z,38.35
2018-02-09T13:32:02.298Z,38.95
2018-02-09T13:34:32.242Z,37.67
2018-02-09T13:37:14.551Z,36.55
2018-02-09T13:39:43.676Z,36.53
2018-02-09T13:42:13.582Z,41.08
2018-02-09T13:44:43.387Z,39.50
2018-02-09T13:47:12.474Z,37.53
2018-02-09T13:49:41.504Z,37.35
2018-02-09T13:52:10.553Z,38.55
2018-02-09T13:54:39.847Z,36.55
2018-02-09T13:57:08.920Z,38.75
2018-02-09T14:04:07.248Z,37.25
2018-02-09T14:06:36.376Z,34.42
2018-02-09T14:09:06.864Z,36.83
2018-02-09T14:11:36.109Z,39.28
2018-02-09T14:18:36.238Z,36.47
2018-02-09T14:21:05.270Z,38.13
2018-02-09T14:23:34.272Z,36.58
2018-02-09T14:26:03.275Z,38.60
2018-02-09T14:28:36.845Z,35.17
2018-02-09T14:31:05.961Z,37.05
2018-02-09T14:33:35.843Z,35.42
2018-02-09T14:36:05.661Z,36.30
2018-02-09T14:38:35.788Z,37.00
2018-02-09T14:41:06.003Z,35.78
2018-02-09T14:43:35.776Z,34.72
2018-02-09T14:46:05.671Z,34.53
2018-02-09T14:48:34.741Z,36.67
2018-02-09T14:51:03.759Z,34.05
2018-02-09T14:53:32.730Z,34.42
2018-02-09T14:56:01.783Z,33.97
2018-02-09T14:58:30.961Z,35.28
2018-02-09T15:01:14.725Z,36.67
2018-02-09T15:03:43.710Z,36.45
2018-02-09T15:06:12.818Z,36.58
2018-02-09T15:08:42.867Z,35.33
2018-02-09T15:11:11.909Z,38.10
2018-02-09T15:13:41.059Z,34.17
2018-02-09T15:16:10.118Z,34.10
2018-02-09T15:18:39.964Z,34.28
2018-02-09T15:21:09.127Z,34.03
2018-02-09T15:23:38.179Z,36.03
2018-02-09T15:26:08.101Z,35.35
2018-02-09T15:28:38.083Z,34.75
2018-02-09T15:31:07.369Z,34.75
2018-02-09T15:33:37.132Z,32.78
2018-02-09T15:36:06.272Z,33.03
2018-02-09T15:38:36.034Z,32.80
2018-02-09T15:41:05.463Z,34.58
2018-02-09T15:43:35.277Z,34.42
2018-02-09T15:46:05.591Z,34.67
2018-02-09T15:48:34.643Z,29.08
2018-02-09T15:51:04.473Z,31.73
2018-02-09T15:53:34.317Z,32.92
2018-02-09T15:56:04.913Z,32.60
2018-02-09T15:58:34.679Z,36.03
2018-02-09T16:01:04.911Z,31.45
2018-02-09T16:03:34.701Z,32.75
2018-02-09T16:06:03.703Z,31.23
2018-02-09T16:08:33.700Z,31.95
2018-02-09T16:11:04.850Z,31.45
2018-02-09T16:13:33.941Z,31.62
2018-02-09T16:16:03.985Z,32.45
2018-02-09T16:18:33.785Z,30.33
2018-02-09T16:21:03.579Z,34.72
2018-02-09T16:23:33.606Z,34.35
2018-02-09T16:26:02.773Z,38.47
2018-02-09T16:28:32.182Z,32.83
2018-02-09T16:31:02.814Z,32.10
2018-02-09T16:33:31.905Z,33.75
2018-02-09T16:36:01.600Z,31.12
2018-02-09T16:38:30.702Z,33.42
2018-02-09T16:41:00.135Z,32.60
2018-02-09T16:43:29.662Z,37.75
2018-02-09T16:45:59.454Z,36.75
2018-02-09T16:48:28.447Z,35.03
2018-02-09T16:50:58.325Z,32.13
2018-02-09T16:53:27.332Z,37.38
2018-02-09T16:55:56.505Z,36.35
2018-02-09T16:58:25.602Z,37.88
2018-02-09T17:00:54.615Z,35.75
2018-02-09T17:03:23.639Z,37.00
2018-02-09T17:05:53.444Z,38.53
2018-02-09T17:08:22.539Z,36.00
2018-02-09T17:10:51.606Z,37.28
2018-02-09T17:13:20.806Z,34.63
2018-02-09T17:15:49.905Z,39.00
2018-02-09T17:18:19.117Z,36.20
2018-02-09T17:20:49.041Z,40.05
2018-02-09T17:23:19.023Z,37.22
2018-02-09T17:25:48.053Z,40.15
2018-02-09T17:28:17.867Z,39.05
2018-02-09T17:30:47.634Z,38.13
2018-02-09T17:33:17.411Z,35.22
2018-02-09T17:35:50.418Z,39.60
2018-02-09T17:38:20.092Z,38.42
2018-02-09T17:40:49.831Z,37.33
2018-02-09T17:43:18.863Z,34.50
2018-02-09T17:45:48.091Z,35.10
2018-02-09T17:48:18.258Z,35.90
2018-02-09T17:50:47.390Z,36.75
2018-02-09T17:53:16.433Z,35.20
2018-02-09T17:55:45.595Z,34.13
2018-02-09T17:58:15.343Z,35.45
2018-02-09T18:00:44.430Z,36.10
2018-02-09T18:03:14.202Z,34.65
2018-02-09T18:05:44.453Z,34.80
2018-02-09T18:08:14.219Z,34.92
2018-02-09T18:10:43.392Z,34.47
2018-02-09T18:13:12.388Z,34.67
2018-02-09T18:15:41.520Z,32.53
2018-02-09T18:18:10.526Z,32.78
2018-02-09T18:20:40.324Z,33.55
2018-02-09T18:23:13.094Z,32.38
2018-02-09T18:25:42.141Z,30.55
2018-02-09T18:28:12.340Z,30.62
2018-02-09T18:30:42.105Z,34.65
2018-02-09T18:33:11.941Z,34.33
2018-02-09T18:35:40.968Z,33.05
2018-02-09T18:38:11.049Z,29.37
2018-02-09T18:40:40.031Z,33.08
2018-02-09T18:43:13.577Z,29.27
2018-02-09T18:45:43.409Z,32.10
2018-02-09T18:48:12.389Z,32.00
2018-02-09T18:50:41.397Z,31.85
2018-02-09T18:53:10.388Z,33.08
2018-02-09T18:55:39.461Z,31.02
2018-02-09T18:58:09.216Z,29.67
2018-02-09T19:00:38.210Z,33.97
2018-02-09T19:03:07.284Z,32.50
2018-02-09T19:05:36.262Z,32.22
2018-02-09T19:08:05.347Z,30.80
2018-02-09T19:10:35.108Z,31.42
2018-02-09T19:13:04.873Z,33.40
2018-02-09T19:15:34.637Z,31.08
2018-02-09T19:18:04.106Z,32.85
2018-02-09T19:20:33.049Z,31.98
2018-02-09T19:23:02.777Z,30.40
2018-02-09T19:25:32.493Z,33.00
2018-02-09T19:28:02.801Z,34.80
2018-02-09T19:30:31.887Z,33.30
2018-02-09T19:33:04.672Z,32.75
2018-02-09T19:35:33.664Z,36.42
2018-02-09T19:38:02.762Z,33.08
2018-02-09T19:40:31.741Z,35.28
2018-02-09T19:43:01.516Z,33.47
2018-02-09T19:45:30.534Z,34.30
2018-02-09T19:47:59.549Z,31.20
2018-02-09T19:50:28.629Z,32.97
2018-02-09T19:52:57.690Z,35.60
2018-02-09T19:55:26.776Z,34.95
2018-02-09T19:57:55.786Z,34.90
2018-02-09T20:00:24.795Z,33.60
2018-02-09T20:02:53.821Z,34.40
2018-02-09T20:05:53.754Z,31.40
2018-02-09T20:08:23.493Z,34.35
2018-02-09T20:10:52.522Z,31.50
2018-02-09T20:13:21.468Z,35.30
2018-02-09T20:15:50.545Z,33.25
2018-02-09T20:18:19.582Z,33.65
2018-02-09T20:20:48.585Z,32.45
2018-02-09T20:23:17.579Z,33.03
2018-02-09T20:25:46.575Z,31.25
2018-02-09T20:28:15.574Z,30.02
2018-02-09T20:30:45.324Z,31.50
2018-02-09T20:33:15.369Z,33.15
2018-02-09T20:35:44.342Z,32.70
2018-02-09T20:38:13.332Z,31.73
2018-02-09T20:40:43.040Z,27.40
2018-02-09T20:43:12.781Z,29.90
2018-02-09T20:45:41.813Z,28.12
2018-02-09T20:48:10.772Z,28.60
2018-02-09T20:50:39.763Z,31.02
2018-02-09T20:53:09.562Z,30.05
2018-02-09T20:55:38.590Z,29.10
2018-02-09T20:58:07.757Z,30.92
2018-02-09T21:00:37.527Z,30.05
2018-02-09T21:03:07.335Z,28.25
2018-02-09T21:05:37.107Z,27.55
2018-02-09T21:08:06.148Z,28.50
2018-02-09T21:10:35.940Z,30.55
2018-02-09T21:13:05.757Z,28.42
2018-02-09T21:15:35.010Z,29.83
2018-02-09T21:18:04.545Z,31.42
2018-02-09T21:20:33.504Z,30.67
2018-02-09T21:23:02.582Z,28.58
2018-02-09T21:25:31.641Z,27.87
2018-02-09T21:28:00.777Z,29.83
2018-02-09T21:30:29.741Z,28.90
2018-02-09T21:32:58.831Z,28.50
2018-02-09T21:35:28.728Z,29.08
2018-02-09T21:37:57.696Z,28.15
2018-02-09T21:40:26.665Z,31.02
2018-02-09T21:42:55.681Z,31.65
2018-02-09T21:45:24.853Z,27.30
2018-02-09T21:47:53.863Z,31.27
2018-02-09T21:50:22.969Z,30.50
2018-02-09T21:52:52.185Z,29.90
2018-02-09T21:56:40.693Z,30.95
2018-02-09T21:59:09.638Z,31.27
2018-02-09T22:01:38.635Z,30.80
2018-02-09T22:04:07.630Z,31.37
2018-02-09T22:06:36.723Z,29.90
2018-02-09T22:09:05.839Z,34.63
2018-02-09T22:11:35.685Z,32.58
2018-02-09T22:14:07.300Z,31.92
2018-02-09T22:16:36.460Z,29.27
2018-02-09T22:19:05.448Z,34.17
2018-02-09T22:21:34.464Z,30.02
2018-02-09T22:24:03.836Z,33.30
2018-02-09T22:26:33.080Z,33.55
2018-02-09T22:29:02.093Z,32.63
2018-02-09T22:31:31.854Z,32.38
2018-02-09T22:34:00.873Z,34.10
2018-02-09T22:36:29.837Z,32.83
2018-02-09T22:38:58.833Z,34.50
2018-02-09T22:41:27.865Z,33.97
2018-02-09T22:43:57.626Z,35.78
2018-02-09T22:46:26.596Z,31.35
2018-02-09T22:48:55.592Z,35.55
2018-02-09T22:51:24.524Z,30.77
2018-02-09T22:53:58.960Z,34.67
2018-02-09T22:56:27.927Z,31.75
2018-02-09T22:58:56.902Z,31.60
2018-02-09T23:01:25.879Z,35.97
2018-02-09T23:03:54.852Z,34.75
2018-02-09T23:06:23.781Z,39.20
2018-02-09T23:08:52.805Z,34.58
2018-02-09T23:11:21.794Z,32.83
2018-02-09T23:13:50.753Z,32.70
2018-02-09T23:16:24.181Z,31.92
2018-02-09T23:18:56.784Z,31.83
2018-02-09T23:21:25.717Z,35.03
2018-02-09T23:23:54.716Z,36.55
2018-02-09T23:26:23.775Z,36.75
2018-02-09T23:28:53.560Z,35.13
2018-02-09T23:31:22.550Z,37.70
2018-02-09T23:33:51.487Z,36.40
2018-02-09T23:36:20.471Z,36.42
2018-02-09T23:38:50.196Z,38.67
2018-02-09T23:41:19.905Z,38.65
2018-02-09T23:43:48.850Z,35.95
2018-02-09T23:46:23.965Z,36.78
2018-02-09T23:48:53.748Z,36.92
2018-02-09T23:51:22.690Z,36.00
2018-02-09T23:53:51.983Z,37.45
2018-02-09T23:56:20.940Z,38.78
2018-02-09T23:58:49.920Z,36.35
